createdAt,value
2019-04-27T00:01:40.616Z,94.51
2019-04-27T00:04:16.254Z,94.41
2019-04-27T00:06:47.837Z,94.61
2019-04-27T00:09:43.213Z,94.63
2019-04-27T00:12:10.875Z,94.54
2019-04-27T00:14:40.650Z,94.46
2019-04-27T00:17:41.309Z,94.36
2019-04-27T00:19:57.417Z,94.35
2019-04-27T00:22:33.335Z,94.34
2019-04-27T00:25:03.469Z,94.37
2019-04-27T00:27:33.661Z,94.44
2019-04-27T00:30:04.045Z,94.35
2019-04-27T00:32:33.757Z,94.44
2019-04-27T00:35:03.923Z,94.42
2019-04-27T00:37:35.248Z,94.39
2019-04-27T00:40:23.684Z,94.24
2019-04-27T00:42:54.163Z,94.28
2019-04-27T00:45:24.063Z,94.46
2019-04-27T00:47:59.331Z,94.61
2019-04-27T00:50:25.238Z,94.62
2019-04-27T00:52:54.927Z,94.65
2019-04-27T00:55:24.763Z,94.57
2019-04-27T00:57:59.168Z,94.48
2019-04-27T01:00:36.610Z,94.47
2019-04-27T01:03:16.947Z,94.62
2019-04-27T01:05:46.724Z,94.59
2019-04-27T01:08:16.426Z,94.49
2019-04-27T01:10:46.227Z,94.72
2019-04-27T01:13:15.963Z,94.91
2019-04-27T01:15:45.722Z,94.87
2019-04-27T01:18:15.687Z,95.13
2019-04-27T01:20:45.456Z,95.38
2019-04-27T01:23:15.316Z,95.47
2019-04-27T01:25:46.652Z,95.49
2019-04-27T01:28:23.574Z,95.65
2019-04-27T01:30:58.877Z,95.57
2019-04-27T01:33:30.310Z,95.75
2019-04-27T01:36:00.119Z,95.69
2019-04-27T01:38:29.855Z,95.69
2019-04-27T01:41:00.669Z,95.83
2019-04-27T01:43:30.606Z,95.71
2019-04-27T01:46:01.045Z,95.78
2019-04-27T01:48:31.034Z,95.74
2019-04-27T01:51:00.791Z,95.74
2019-04-27T01:53:34.439Z,95.56
2019-04-27T01:56:04.254Z,95.58
2019-04-27T01:58:34.040Z,95.57
2019-04-27T02:01:23.086Z,95.65
2019-04-27T02:04:00.252Z,95.69
2019-04-27T02:06:30.202Z,95.61
2019-04-27T02:09:00.054Z,95.55
2019-04-27T02:11:29.856Z,95.66
2019-04-27T02:13:59.902Z,95.73
2019-04-27T02:16:30.679Z,95.58
2019-04-27T02:19:00.515Z,95.43
2019-04-27T02:21:30.495Z,95.49
2019-04-27T02:24:00.165Z,95.39
2019-04-27T02:26:30.065Z,95.44
2019-04-27T02:29:04.557Z,95.28
2019-04-27T02:31:35.984Z,95.38
2019-04-27T02:34:20.037Z,95.50
2019-04-27T02:36:50.326Z,95.52
2019-04-27T02:39:21.702Z,95.58
2019-04-27T02:41:51.869Z,95.55
2019-04-27T02:44:26.445Z,95.69
2019-04-27T02:46:56.238Z,95.67
2019-04-27T02:49:26.062Z,95.61
2019-04-27T02:51:59.283Z,95.62
2019-04-27T02:54:29.848Z,95.63
2019-04-27T02:56:59.940Z,95.69
2019-04-27T02:59:30.470Z,95.74
2019-04-27T03:02:02.205Z,95.76
2019-04-27T03:04:31.881Z,95.92
2019-04-27T03:07:01.566Z,95.39
2019-04-27T03:09:31.292Z,95.60
2019-04-27T03:12:02.128Z,95.84
2019-04-27T03:14:50.572Z,96.21
2019-04-27T03:17:22.905Z,96.19
2019-04-27T03:20:05.979Z,96.21
2019-04-27T03:22:39.579Z,96.25
2019-04-27T03:25:14.900Z,96.25
2019-04-27T03:27:44.309Z,96.19
2019-04-27T03:30:15.704Z,96.21
2019-04-27T03:32:45.563Z,96.20
2019-04-27T03:35:15.361Z,96.02
2019-04-27T03:37:45.347Z,95.96
2019-04-27T03:40:15.364Z,95.94
2019-04-27T03:42:49.833Z,95.73
2019-04-27T03:45:20.004Z,95.66
2019-04-27T03:47:50.669Z,95.66
2019-04-27T03:50:22.211Z,95.64
2019-04-27T03:53:10.326Z,95.93
2019-04-27T03:55:42.735Z,95.95
2019-04-27T03:58:14.437Z,96.09
2019-04-27T04:00:44.243Z,96.38
2019-04-27T04:03:14.228Z,96.35
2019-04-27T04:05:45.564Z,96.44
2019-04-27T04:08:15.409Z,96.46
2019-04-27T04:10:49.366Z,96.52
2019-04-27T04:13:39.201Z,96.70
2019-04-27T04:16:16.023Z,96.71
2019-04-27T04:19:02.276Z,96.33
2019-04-27T04:21:32.162Z,96.08
2019-04-27T04:24:02.094Z,95.98
2019-04-27T04:26:32.794Z,96.02
2019-04-27T04:29:03.068Z,95.80
2019-04-27T04:31:33.521Z,95.67
2019-04-27T04:34:03.541Z,95.95
2019-04-27T04:36:33.434Z,96.18
2019-04-27T04:39:03.810Z,96.22
2019-04-27T04:41:40.606Z,96.30
2019-04-27T04:44:12.478Z,96.29
2019-04-27T04:46:50.268Z,95.77
2019-04-27T04:49:20.291Z,95.86
2019-04-27T04:51:50.449Z,96.10
2019-04-27T04:54:24.802Z,95.99
2019-04-27T04:56:54.784Z,96.09
2019-04-27T04:59:24.804Z,95.88
2019-04-27T05:01:54.681Z,95.78
2019-04-27T05:04:24.434Z,95.60
2019-04-27T05:06:54.259Z,95.41
2019-04-27T05:09:24.023Z,94.84
2019-04-27T05:11:53.674Z,94.80
2019-04-27T05:14:23.390Z,95.14
2019-04-27T05:16:53.104Z,95.38
2019-04-27T05:19:23.064Z,95.08
2019-04-27T05:21:52.851Z,94.89
2019-04-27T05:24:22.556Z,94.81
2019-04-27T05:26:52.232Z,94.83
2019-04-27T05:29:21.988Z,94.54
2019-04-27T05:31:51.771Z,94.47
2019-04-27T05:34:21.570Z,94.47
2019-04-27T05:36:52.627Z,94.20
2019-04-27T05:39:24.975Z,93.98
2019-04-27T05:41:53.983Z,93.73
2019-04-27T05:44:25.623Z,93.58
2019-04-27T05:46:58.647Z,93.10
2019-04-27T05:49:36.271Z,92.75
2019-04-27T05:52:08.580Z,92.98
2019-04-27T05:54:38.609Z,92.80
2019-04-27T05:57:09.517Z,92.52
2019-04-27T05:59:39.794Z,92.15
2019-04-27T06:02:09.677Z,92.31
2019-04-27T06:04:41.400Z,92.34
2019-04-27T06:07:10.785Z,92.17
2019-04-27T06:09:40.489Z,92.16
2019-04-27T06:12:10.191Z,92.06
2019-04-27T06:14:39.902Z,91.62
2019-04-27T06:17:09.589Z,90.62
2019-04-27T06:19:39.353Z,90.61
2019-04-27T06:22:09.675Z,89.84
2019-04-27T06:24:39.749Z,88.41
2019-04-27T06:27:09.529Z,87.33
2019-04-27T06:29:40.866Z,86.57
2019-04-27T06:32:11.038Z,87.11
2019-04-27T06:34:40.808Z,85.96
2019-04-27T06:37:10.596Z,84.26
2019-04-27T06:39:40.340Z,82.54
2019-04-27T06:42:16.730Z,82.28
2019-04-27T06:44:41.420Z,78.27
2019-04-27T06:47:11.191Z,77.08
2019-04-27T06:49:40.891Z,76.13
2019-04-27T06:52:11.691Z,75.33
2019-04-27T06:54:41.441Z,74.19
2019-04-27T06:57:11.153Z,73.04
2019-04-27T06:59:40.837Z,74.87
2019-04-27T07:02:10.538Z,73.91
2019-04-27T07:04:40.594Z,74.56
2019-04-27T07:07:10.288Z,76.30
2019-04-27T07:09:40.130Z,77.64
2019-04-27T07:12:12.531Z,78.65
2019-04-27T07:14:52.216Z,79.05
2019-04-27T07:17:13.776Z,79.00
2019-04-27T07:19:43.445Z,80.24
2019-04-27T07:22:13.235Z,80.95
2019-04-27T07:24:42.919Z,80.38
2019-04-27T07:27:12.679Z,80.36
2019-04-27T07:29:44.651Z,80.61
2019-04-27T07:32:13.859Z,80.70
2019-04-27T07:34:43.547Z,80.30
2019-04-27T07:37:13.282Z,79.96
2019-04-27T07:39:42.953Z,77.50
2019-04-27T07:42:12.661Z,77.46
2019-04-27T07:44:47.077Z,78.65
2019-04-27T07:47:19.456Z,77.33
2019-04-27T07:49:51.289Z,74.50
2019-04-27T07:52:21.354Z,74.97
2019-04-27T07:54:51.356Z,76.83
2019-04-27T07:57:21.199Z,75.72
2019-04-27T07:59:50.953Z,76.12
2019-04-27T08:02:20.614Z,74.23
2019-04-27T08:04:50.634Z,76.02
2019-04-27T08:07:20.303Z,74.71
2019-04-27T08:09:50.089Z,74.68
2019-04-27T08:12:20.898Z,74.73
2019-04-27T08:14:50.713Z,74.84
2019-04-27T08:17:20.544Z,74.54
2019-04-27T08:19:50.243Z,74.67
2019-04-27T08:22:19.927Z,72.77
2019-04-27T08:24:49.932Z,72.13
2019-04-27T08:27:33.306Z,72.58
2019-04-27T08:30:17.172Z,73.05
2019-04-27T08:32:54.658Z,71.77
2019-04-27T08:35:24.429Z,70.88
2019-04-27T08:37:54.106Z,70.53
2019-04-27T08:40:23.954Z,70.96
2019-04-27T08:42:55.727Z,71.74
2019-04-27T08:45:25.672Z,72.63
2019-04-27T08:47:55.417Z,72.13
2019-04-27T08:50:25.122Z,72.63
2019-04-27T08:53:00.905Z,72.32
2019-04-27T08:55:30.618Z,71.01
2019-04-27T08:58:00.297Z,71.57
2019-04-27T09:00:30.089Z,71.26
2019-04-27T09:02:59.773Z,71.65
2019-04-27T09:05:29.473Z,68.96
2019-04-27T09:08:08.746Z,69.89
2019-04-27T09:10:40.193Z,67.70
2019-04-27T09:13:11.524Z,68.08
2019-04-27T09:15:49.457Z,67.69
2019-04-27T09:18:21.307Z,65.76
2019-04-27T09:20:58.987Z,64.89
2019-04-27T09:23:28.778Z,65.02
2019-04-27T09:25:59.461Z,66.40
2019-04-27T09:28:29.593Z,65.36
2019-04-27T09:30:59.354Z,64.07
2019-04-27T09:33:29.042Z,66.18
2019-04-27T09:35:58.878Z,65.53
2019-04-27T09:38:29.817Z,64.74
2019-04-27T09:40:59.723Z,64.08
2019-04-27T09:43:31.480Z,63.16
2019-04-27T09:46:01.890Z,65.35
2019-04-27T09:48:33.797Z,61.27
2019-04-27T09:51:06.493Z,60.69
2019-04-27T09:53:46.184Z,60.58
2019-04-27T09:56:18.220Z,60.90
2019-04-27T09:58:49.433Z,61.55
2019-04-27T10:01:20.528Z,60.71
2019-04-27T10:03:50.425Z,59.72
2019-04-27T10:06:20.332Z,58.62
2019-04-27T10:08:50.033Z,59.69
2019-04-27T10:11:19.812Z,59.41
2019-04-27T10:13:49.491Z,59.39
2019-04-27T10:16:19.323Z,58.42
2019-04-27T10:18:49.166Z,56.79
2019-04-27T10:21:18.874Z,56.60
2019-04-27T10:23:48.592Z,59.12
2019-04-27T10:26:18.295Z,54.93
2019-04-27T10:28:49.448Z,56.27
2019-04-27T10:31:19.216Z,57.11
2019-04-27T10:33:48.877Z,58.03
2019-04-27T10:36:20.326Z,57.73
2019-04-27T10:38:50.012Z,57.94
2019-04-27T10:41:19.889Z,57.94
2019-04-27T10:43:49.573Z,54.80
2019-04-27T10:46:19.350Z,54.81
2019-04-27T10:48:49.072Z,55.93
2019-04-27T10:51:18.802Z,56.01
2019-04-27T10:53:48.596Z,55.10
2019-04-27T10:56:18.310Z,55.76
2019-04-27T10:58:48.075Z,54.51
2019-04-27T11:01:17.828Z,53.76
2019-04-27T11:03:51.859Z,52.93
2019-04-27T11:06:39.510Z,52.80
2019-04-27T11:09:12.597Z,53.18
2019-04-27T11:11:42.433Z,51.63
2019-04-27T11:14:12.499Z,50.11
2019-04-27T11:16:42.254Z,50.50
2019-04-27T11:19:12.065Z,49.43
2019-04-27T11:21:41.780Z,49.81
2019-04-27T11:24:11.462Z,51.50
2019-04-27T11:26:41.183Z,50.49
2019-04-27T11:29:10.938Z,49.76
2019-04-27T11:31:40.621Z,50.61
2019-04-27T11:34:10.498Z,52.00
2019-04-27T11:36:50.741Z,48.55
2019-04-27T11:39:21.234Z,48.97
2019-04-27T11:41:50.982Z,48.43
2019-04-27T11:44:20.701Z,49.35
2019-04-27T11:46:50.528Z,47.65
2019-04-27T11:49:20.236Z,49.99
2019-04-27T11:51:50.244Z,52.52
2019-04-27T11:54:20.070Z,50.63
2019-04-27T11:56:49.815Z,50.85
2019-04-27T11:59:19.683Z,51.02
2019-04-27T12:01:49.526Z,53.45
2019-04-27T12:04:19.600Z,50.53
2019-04-27T12:06:49.435Z,49.82
2019-04-27T12:09:19.135Z,51.34
2019-04-27T12:11:49.042Z,48.70
2019-04-27T12:14:18.795Z,49.40
2019-04-27T12:16:48.486Z,48.21
2019-04-27T12:19:18.169Z,48.94
2019-04-27T12:21:47.845Z,48.88
2019-04-27T12:24:17.947Z,47.61
2019-04-27T12:26:58.245Z,43.02
2019-04-27T12:29:29.610Z,43.93
2019-04-27T12:31:59.420Z,43.02
2019-04-27T12:34:29.187Z,45.37
2019-04-27T12:36:58.851Z,45.98
2019-04-27T12:39:28.556Z,47.15
2019-04-27T12:41:58.218Z,47.40
2019-04-27T12:44:27.971Z,48.81
2019-04-27T12:47:02.513Z,47.03
2019-04-27T12:49:29.117Z,49.22
2019-04-27T12:51:58.794Z,45.95
2019-04-27T12:54:31.641Z,45.12
2019-04-27T12:57:03.223Z,46.15
2019-04-27T12:59:50.679Z,46.08
2019-04-27T13:02:22.227Z,43.50
2019-04-27T13:04:52.010Z,44.53
2019-04-27T13:07:22.798Z,45.83
2019-04-27T13:09:52.631Z,44.75
2019-04-27T13:12:22.398Z,43.95
2019-04-27T13:14:52.166Z,42.67
2019-04-27T13:17:21.934Z,43.20
2019-04-27T13:19:51.642Z,43.07
2019-04-27T13:22:21.333Z,44.08
2019-04-27T13:24:51.026Z,45.13
2019-04-27T13:27:20.689Z,42.67
2019-04-27T13:29:50.458Z,44.37
2019-04-27T13:32:20.215Z,41.55
2019-04-27T13:34:49.898Z,41.30
2019-04-27T13:37:33.512Z,43.08
2019-04-27T13:40:09.063Z,42.55
2019-04-27T13:42:39.816Z,43.28
2019-04-27T13:45:11.213Z,44.90
2019-04-27T13:47:48.339Z,43.41
2019-04-27T13:50:19.913Z,45.67
2019-04-27T13:52:56.968Z,44.37
2019-04-27T13:55:26.819Z,43.95
2019-04-27T13:57:56.503Z,41.88
2019-04-27T14:00:26.312Z,43.92
2019-04-27T14:02:55.981Z,46.10
2019-04-27T14:05:25.671Z,46.56
2019-04-27T14:07:55.424Z,45.54
2019-04-27T14:10:25.107Z,47.43
2019-04-27T14:12:54.862Z,49.90
2019-04-27T14:15:24.548Z,52.47
2019-04-27T14:17:54.342Z,53.51
2019-04-27T14:20:24.010Z,53.97
2019-04-27T14:22:55.321Z,54.46
2019-04-27T14:25:25.126Z,56.52
2019-04-27T14:27:54.872Z,57.82
2019-04-27T14:30:24.726Z,57.59
2019-04-27T14:32:54.471Z,57.33
2019-04-27T14:35:24.170Z,59.32
2019-04-27T14:37:53.850Z,59.40
2019-04-27T14:40:23.686Z,60.24
2019-04-27T14:42:53.862Z,60.05
2019-04-27T14:45:23.898Z,61.78
2019-04-27T14:47:53.591Z,62.91
2019-04-27T14:50:23.403Z,64.33
2019-04-27T14:52:56.626Z,64.94
2019-04-27T14:55:26.387Z,65.38
2019-04-27T14:57:56.107Z,66.35
2019-04-27T15:00:25.937Z,65.26
2019-04-27T15:02:55.625Z,65.63
2019-04-27T15:05:25.387Z,65.64
2019-04-27T15:07:55.182Z,66.21
2019-04-27T15:10:27.106Z,68.05
2019-04-27T15:12:56.238Z,68.57
2019-04-27T15:15:28.356Z,68.10
2019-04-27T15:18:04.462Z,68.00
2019-04-27T15:20:41.019Z,67.47
2019-04-27T15:23:10.255Z,67.82
2019-04-27T15:25:45.763Z,67.02
2019-04-27T15:28:15.261Z,67.44
2019-04-27T15:30:59.529Z,68.30
2019-04-27T15:33:51.449Z,68.35
2019-04-27T15:36:22.628Z,68.92
2019-04-27T15:38:58.463Z,70.23
2019-04-27T15:41:31.515Z,70.84
2019-04-27T15:44:05.726Z,69.19
2019-04-27T15:46:35.028Z,69.69
2019-04-27T15:49:09.618Z,69.95
2019-04-27T15:51:38.234Z,70.32
2019-04-27T15:54:08.161Z,69.74
2019-04-27T15:56:38.081Z,69.62
2019-04-27T15:59:08.701Z,70.50
2019-04-27T16:01:39.591Z,70.47
2019-04-27T16:04:11.276Z,70.48
2019-04-27T16:06:42.942Z,70.78
2019-04-27T16:09:15.978Z,71.13
2019-04-27T16:11:50.037Z,72.03
2019-04-27T16:14:18.881Z,72.46
2019-04-27T16:16:48.923Z,72.68
2019-04-27T16:19:19.693Z,72.71
2019-04-27T16:21:54.142Z,73.37
2019-04-27T16:24:21.421Z,73.88
2019-04-27T16:26:55.748Z,75.30
2019-04-27T16:29:23.083Z,76.64
2019-04-27T16:31:54.324Z,77.04
2019-04-27T16:34:24.316Z,77.32
2019-04-27T16:36:54.266Z,77.56
2019-04-27T16:39:24.166Z,79.38
2019-04-27T16:41:53.962Z,78.26
2019-04-27T16:44:23.770Z,79.25
2019-04-27T16:46:53.503Z,79.56
2019-04-27T16:49:23.571Z,79.89
2019-04-27T16:51:53.326Z,78.31
2019-04-27T16:54:28.162Z,79.17
2019-04-27T16:57:03.289Z,80.18
2019-04-27T16:59:43.308Z,78.99
2019-04-27T17:02:01.666Z,78.42
2019-04-27T17:04:31.614Z,79.04
2019-04-27T17:07:01.379Z,80.36
2019-04-27T17:09:31.174Z,80.55
2019-04-27T17:12:00.943Z,79.65
2019-04-27T17:14:36.721Z,80.36
2019-04-27T17:17:11.921Z,81.31
2019-04-27T17:19:43.907Z,81.98
2019-04-27T17:22:14.766Z,82.28
2019-04-27T17:24:48.647Z,82.45
2019-04-27T17:27:21.899Z,83.07
2019-04-27T17:29:57.477Z,83.93
2019-04-27T17:32:25.552Z,82.90
2019-04-27T17:34:55.565Z,83.00
2019-04-27T17:37:25.224Z,83.61
2019-04-27T17:39:59.501Z,83.37
2019-04-27T17:42:27.485Z,82.54
2019-04-27T17:45:00.487Z,82.66
2019-04-27T17:47:30.053Z,82.45
2019-04-27T17:49:59.960Z,82.74
2019-04-27T17:52:29.857Z,83.20
2019-04-27T17:55:00.618Z,83.55
2019-04-27T17:57:30.541Z,83.69
2019-04-27T18:00:03.371Z,84.06
2019-04-27T18:02:33.837Z,84.24
2019-04-27T18:05:03.279Z,84.07
2019-04-27T18:07:34.950Z,84.08
2019-04-27T18:10:05.205Z,84.23
2019-04-27T18:12:34.887Z,84.58
2019-04-27T18:15:05.750Z,84.49
2019-04-27T18:17:36.383Z,84.58
2019-04-27T18:20:21.546Z,84.74
2019-04-27T18:22:55.583Z,85.47
2019-04-27T18:25:25.263Z,86.58
2019-04-27T18:27:58.207Z,86.80
2019-04-27T18:30:33.635Z,87.01
2019-04-27T18:33:02.272Z,87.42
2019-04-27T18:35:32.120Z,87.37
2019-04-27T18:38:02.079Z,87.38
2019-04-27T18:40:33.260Z,87.47
2019-04-27T18:43:06.341Z,87.63
2019-04-27T18:45:38.075Z,87.61
2019-04-27T18:48:13.544Z,87.71
2019-04-27T18:50:43.546Z,87.60
2019-04-27T18:53:23.251Z,87.83
2019-04-27T18:55:56.979Z,87.96
2019-04-27T18:58:22.839Z,88.00
2019-04-27T19:00:52.683Z,88.22
2019-04-27T19:03:22.412Z,88.02
2019-04-27T19:05:52.093Z,88.12
2019-04-27T19:08:21.782Z,87.78
2019-04-27T19:10:51.542Z,87.74
2019-04-27T19:13:21.483Z,87.86
2019-04-27T19:15:51.227Z,87.83
2019-04-27T19:18:20.997Z,87.71
2019-04-27T19:20:50.744Z,87.76
2019-04-27T19:23:20.555Z,87.70
2019-04-27T19:25:52.021Z,88.40
2019-04-27T19:28:42.596Z,88.60
2019-04-27T19:31:16.713Z,88.72
2019-04-27T19:33:48.043Z,88.90
2019-04-27T19:36:19.179Z,88.93
2019-04-27T19:38:49.770Z,88.96
2019-04-27T19:41:19.713Z,89.48
2019-04-27T19:43:49.478Z,88.88
2019-04-27T19:46:20.033Z,88.72
2019-04-27T19:48:50.144Z,88.64
2019-04-27T19:51:19.826Z,88.49
2019-04-27T19:53:50.736Z,88.45
2019-04-27T19:56:21.402Z,88.57
2019-04-27T19:58:53.012Z,88.57
2019-04-27T20:01:30.254Z,88.42
2019-04-27T20:04:04.307Z,88.62
2019-04-27T20:06:34.057Z,88.45
2019-04-27T20:09:13.191Z,88.61
2019-04-27T20:11:43.001Z,88.95
2019-04-27T20:14:12.759Z,88.55
2019-04-27T20:16:42.512Z,87.43
2019-04-27T20:19:12.267Z,87.42
2019-04-27T20:21:42.003Z,87.44
2019-04-27T20:24:11.887Z,87.12
2019-04-27T20:26:41.551Z,87.45
2019-04-27T20:29:11.856Z,87.80
2019-04-27T20:31:41.867Z,87.70
2019-04-27T20:34:13.339Z,88.11
2019-04-27T20:36:43.076Z,87.88
2019-04-27T20:39:12.811Z,88.03
2019-04-27T20:41:42.491Z,87.89
2019-04-27T20:44:12.767Z,88.21
2019-04-27T20:46:42.701Z,88.39
2019-04-27T20:49:14.104Z,88.28
2019-04-27T20:52:01.050Z,88.64
2019-04-27T20:54:32.594Z,88.94
2019-04-27T20:57:02.340Z,89.18
2019-04-27T20:59:32.091Z,88.99
2019-04-27T21:02:22.210Z,89.69
2019-04-27T21:04:52.853Z,89.85
2019-04-27T21:07:24.287Z,90.12
2019-04-27T21:09:56.794Z,89.77
2019-04-27T21:12:26.669Z,90.05
2019-04-27T21:14:56.345Z,90.03
2019-04-27T21:17:26.027Z,90.05
2019-04-27T21:19:55.726Z,90.40
2019-04-27T21:22:25.417Z,90.44
2019-04-27T21:24:55.189Z,90.60
2019-04-27T21:27:24.996Z,91.06
2019-04-27T21:29:54.693Z,90.97
2019-04-27T21:32:24.366Z,90.86
2019-04-27T21:34:54.072Z,91.32
2019-04-27T21:37:25.220Z,91.47
2019-04-27T21:40:12.973Z,91.67
2019-04-27T21:42:47.693Z,91.85
2019-04-27T21:45:18.870Z,92.22
2019-04-27T21:47:48.572Z,92.42
2019-04-27T21:50:20.591Z,92.34
2019-04-27T21:53:00.589Z,92.27
2019-04-27T21:55:33.025Z,92.42
2019-04-27T21:58:02.779Z,92.59
2019-04-27T22:00:39.124Z,92.62
2019-04-27T22:03:17.386Z,92.60
2019-04-27T22:05:47.083Z,92.94
2019-04-27T22:08:16.934Z,92.99
2019-04-27T22:10:46.633Z,93.22
2019-04-27T22:13:17.550Z,93.38
2019-04-27T22:15:47.245Z,93.48
2019-04-27T22:18:16.989Z,93.14
2019-04-27T22:20:46.769Z,93.13
2019-04-27T22:23:18.175Z,93.39
2019-04-27T22:25:47.869Z,93.63
2019-04-27T22:28:17.633Z,93.43
2019-04-27T22:30:47.337Z,93.51
2019-04-27T22:33:17.012Z,92.87
2019-04-27T22:35:46.702Z,93.10
2019-04-27T22:38:16.553Z,93.06
2019-04-27T22:40:56.855Z,93.44
2019-04-27T22:43:44.560Z,93.34
2019-04-27T22:46:18.685Z,93.16
2019-04-27T22:48:48.426Z,93.53
2019-04-27T22:51:18.275Z,93.53
2019-04-27T22:53:47.962Z,93.42
2019-04-27T22:56:19.320Z,93.51
2019-04-27T22:59:07.207Z,93.47
2019-04-27T23:01:42.666Z,93.58
2019-04-27T23:04:14.154Z,93.75
2019-04-27T23:06:43.852Z,93.88
2019-04-27T23:09:13.798Z,93.97
2019-04-27T23:11:43.507Z,94.00
2019-04-27T23:14:13.184Z,94.17
2019-04-27T23:16:44.595Z,94.21
2019-04-27T23:19:14.271Z,94.47
2019-04-27T23:21:43.979Z,94.31
2019-04-27T23:24:13.667Z,94.23
2019-04-27T23:26:43.451Z,94.32
2019-04-27T23:29:15.832Z,94.36
2019-04-27T23:31:46.453Z,94.16
2019-04-27T23:34:16.214Z,94.40
2019-04-27T23:36:45.982Z,94.33
2019-04-27T23:39:15.806Z,94.22
2019-04-27T23:41:45.506Z,94.20
2019-04-27T23:44:15.249Z,94.10
2019-04-27T23:46:44.950Z,94.30
2019-04-27T23:49:14.633Z,94.23
2019-04-27T23:51:59.368Z,94.14
2019-04-27T23:54:29.111Z,94.10
2019-04-27T23:57:04.821Z,93.83
2019-04-27T23:59:34.582Z,93.90
